Time;durP1;ratioP1;P1;durP2;ratioP2;P2;SDS_P1;SDS_P2;PMS_P1;PMS_P2;Temp;Humidity;BMP_temperature;BMP_pressure;BME280_temperature;BME280_humidity;BME280_pressure;Samples;Min_cycle;Max_cycle;Signal;HPM_P1;HPM_P2
2023/01/03 00:00:29;;;;;;;0.52;0.52;;;;;;;8.29;71.61;97925.06;29395;283;63009;-57
2023/01/03 00:01:06;;;;;;;0.50;0.50;;;;;;;8.27;71.60;97927.19;29395;282;63004;-65
2023/01/03 00:01:39;;;;;;;0.50;0.50;;;;;;;8.25;71.81;97923.13;29394;222;64013;-57
2023/01/03 00:02:12;;;;;;;0.47;0.47;;;;;;;8.24;72.00;97921.47;29395;259;63005;-56
2023/01/03 00:02:43;;;;;;;0.50;0.50;;;;;;;8.19;72.49;97933.03;29395;212;63009;-57
2023/01/03 00:03:18;;;;;;;0.50;0.50;;;;;;;8.15;72.32;97922.97;29395;211;63000;-56
2023/01/03 00:03:52;;;;;;;0.50;0.50;;;;;;;8.10;73.21;97925.63;29395;256;63008;-66
2023/01/03 00:04:27;;;;;;;0.60;0.60;;;;;;;8.07;73.01;97927.75;29395;202;63005;-66
2023/01/03 00:04:58;;;;;;;0.50;0.50;;;;;;;8.07;73.24;97933.16;29395;223;63009;-57
2023/01/03 00:05:29;;;;;;;0.50;0.50;;;;;;;8.07;73.09;97938.56;29395;224;63005;-58
2023/01/03 00:06:01;;;;;;;0.60;0.60;;;;;;;8.10;73.31;97936.44;29395;226;63009;-58
2023/01/03 00:06:47;;;;;;;0.50;0.50;;;;;;;8.14;73.14;97945.69;29394;222;64009;-58
2023/01/03 00:07:32;;;;;;;0.60;0.60;;;;;;;8.15;72.86;97939.19;29395;244;63009;-57
2023/01/03 00:08:04;;;;;;;0.50;0.50;;;;;;;8.15;72.53;97940.03;29395;208;63005;-64
2023/01/03 00:08:37;;;;;;;0.50;0.50;;;;;;;8.14;72.78;97935.69;29395;199;63009;-58
2023/01/03 00:09:11;;;;;;;0.60;0.60;;;;;;;8.12;72.80;97939.69;29395;197;63004;-57
2023/01/03 00:09:42;;;;;;;0.60;0.60;;;;;;;8.11;72.99;97938.06;29395;199;63009;-56
2023/01/03 00:10:13;;;;;;;0.60;0.60;;;;;;;8.10;73.10;97936.44;29395;205;63004;-59
2023/01/03 00:10:45;;;;;;;0.50;0.50;;;;;;;8.11;72.87;97943.47;29395;239;63009;-58
2023/01/03 00:12:24;;;;;;;0.60;0.60;;;;;;;8.10;72.91;97948.06;29394;211;64014;-57
2023/01/03 00:12:56;;;;;;;0.50;0.50;;;;;;;8.08;73.21;97951.00;29394;251;64009;-57
2023/01/03 00:13:27;;;;;;;0.60;0.60;;;;;;;8.07;73.03;97949.38;29395;202;63009;-56
2023/01/03 00:13:59;;;;;;;0.50;0.50;;;;;;;8.08;73.43;97961.00;29395;258;63005;-57
2023/01/03 00:14:36;;;;;;;0.60;0.60;;;;;;;8.07;73.42;97965.59;29395;200;63019;-57
2023/01/03 00:15:13;;;;;;;0.50;0.50;;;;;;;8.07;73.36;97965.59;29395;275;63004;-65
2023/01/03 00:15:44;;;;;;;0.52;0.52;;;;;;;8.06;73.33;97958.56;29394;285;64013;-64
2023/01/03 00:16:19;;;;;;;0.52;0.52;;;;;;;8.06;73.56;97958.56;29395;218;63014;-66
2023/01/03 00:16:53;;;;;;;0.60;0.60;;;;;;;8.09;73.48;97962.66;29395;206;63018;-67
2023/01/03 00:17:25;;;;;;;0.50;0.50;;;;;;;8.10;73.14;97963.47;29395;220;63004;-65
2023/01/03 00:17:56;;;;;;;0.50;0.50;;;;;;;8.11;73.34;97970.50;29395;215;63008;-65
2023/01/03 00:18:27;;;;;;;0.60;0.60;;;;;;;8.10;73.17;97963.47;29395;232;63004;-65
2023/01/03 00:19:08;;;;;;;0.50;0.50;;;;;;;8.08;73.17;97961.81;29395;262;63008;-64
2023/01/03 00:19:43;;;;;;;0.50;0.50;;;;;;;8.07;73.25;97983.69;29395;294;63005;-57
2023/01/03 00:20:15;;;;;;;0.50;0.50;;;;;;;8.07;73.40;97976.41;29394;238;64013;-57
2023/01/03 00:20:46;;;;;;;0.50;0.50;;;;;;;8.06;73.43;97966.66;29395;199;63005;-57
2023/01/03 00:21:17;;;;;;;0.50;0.50;;;;;;;8.06;73.36;97968.56;29395;224;63005;-56
2023/01/03 00:21:50;;;;;;;0.50;0.50;;;;;;;8.02;74.18;97968.22;29395;320;63005;-56
2023/01/03 00:22:21;;;;;;;0.50;0.50;;;;;;;7.99;74.02;97968.72;29395;199;63009;-67
2023/01/03 00:22:53;;;;;;;0.50;0.50;;;;;;;7.96;74.66;97958.44;29394;320;64009;-57
2023/01/03 00:23:25;;;;;;;0.50;0.50;;;;;;;7.92;75.55;97954.59;29395;198;63019;-57
2023/01/03 00:23:57;;;;;;;0.50;0.50;;;;;;;7.88;74.96;97958.87;29395;314;63015;-57
2023/01/03 00:24:32;;;;;;;0.60;0.60;;;;;;;7.87;75.45;97948.31;29395;253;63009;-56
2023/01/03 00:25:05;;;;;;;0.60;0.60;;;;;;;7.81;75.52;97955.53;29395;259;63004;-56
2023/01/03 00:25:37;;;;;;;0.50;0.50;;;;;;;7.76;75.96;97951.94;29395;256;63008;-66
2023/01/03 00:26:11;;;;;;;0.50;0.50;;;;;;;7.73;75.81;97951.34;29394;229;64009;-57
2023/01/03 00:26:43;;;;;;;0.50;0.50;;;;;;;7.72;76.01;97951.59;29395;230;63009;-57
2023/01/03 00:27:18;;;;;;;0.50;0.50;;;;;;;7.73;75.85;97954.06;29395;278;63005;-67
2023/01/03 00:27:52;;;;;;;0.50;0.50;;;;;;;7.77;75.42;97946.28;29395;215;63009;-57
2023/01/03 00:28:23;;;;;;;0.50;0.50;;;;;;;7.77;75.34;97954.38;29395;236;63005;-64
2023/01/03 00:28:56;;;;;;;0.60;0.60;;;;;;;7.76;75.69;97955.44;29394;239;64013;-56
2023/01/03 00:29:28;;;;;;;0.60;0.60;;;;;;;7.74;75.99;97955.69;29395;221;63008;-66
2023/01/03 00:30:00;;;;;;;0.60;0.60;;;;;;;7.71;76.06;97955.38;29395;225;63009;-66
2023/01/03 00:30:31;;;;;;;0.50;0.50;;;;;;;7.70;75.89;97953.72;29395;197;63004;-57
2023/01/03 00:31:11;;;;;;;0.60;0.60;;;;;;;7.66;76.21;97952.59;29395;278;63009;-56
2023/01/03 00:31:42;;;;;;;0.50;0.50;;;;;;;7.65;76.00;97953.66;29395;205;63004;-56
2023/01/03 00:32:14;;;;;;;0.60;0.60;;;;;;;7.66;76.18;97958.81;29395;197;63009;-66
2023/01/03 00:32:46;;;;;;;0.55;0.55;;;;;;;7.65;75.90;97956.34;29395;204;63004;-57
2023/01/03 00:33:18;;;;;;;0.60;0.60;;;;;;;7.64;76.10;97947.44;29395;233;63019;-56
2023/01/03 00:33:50;;;;;;;0.50;0.50;;;;;;;7.65;76.02;97956.34;29395;300;63005;-66
2023/01/03 00:34:23;;;;;;;0.60;0.60;;;;;;;7.64;76.14;97960.13;29394;234;64014;-57
2023/01/03 00:34:56;;;;;;;0.50;0.50;;;;;;;7.65;75.86;97959.06;29395;231;63005;-57
2023/01/03 00:35:29;;;;;;;0.60;0.60;;;;;;;7.64;75.76;97954.72;29395;266;63009;-57
2023/01/03 00:36:03;;;;;;;0.50;0.50;;;;;;;7.64;75.78;97949.31;29394;277;64009;-65
2023/01/03 00:36:35;;;;;;;0.50;0.50;;;;;;;7.65;76.37;97948.25;29395;218;63018;-56
2023/01/03 00:37:06;;;;;;;0.50;0.50;;;;;;;7.64;76.11;97954.72;29395;226;63005;-56
2023/01/03 00:37:38;;;;;;;0.57;0.57;;;;;;;7.64;75.78;97943.91;29395;206;63009;-56
2023/01/03 00:38:09;;;;;;;0.60;0.60;;;;;;;7.64;75.68;97943.91;29395;229;63004;-55
2023/01/03 00:38:40;;;;;;;0.55;0.55;;;;;;;7.66;75.91;97948.00;29395;277;63004;-55
2023/01/03 00:39:11;;;;;;;0.50;0.50;;;;;;;7.67;76.01;97938.00;29395;218;63004;-57
2023/01/03 00:39:43;;;;;;;0.50;0.50;;;;;;;7.69;75.77;97952.09;29395;235;63009;-65
2023/01/03 00:40:15;;;;;;;0.50;0.50;;;;;;;7.72;75.40;97951.59;29395;248;63004;-56
2023/01/03 00:40:49;;;;;;;0.50;0.50;;;;;;;7.74;75.25;97946.78;29395;211;63006;-64
2023/01/03 00:41:21;;;;;;;0.60;0.60;;;;;;;7.76;75.48;97951.94;29394;265;64009;-55
2023/01/03 00:41:55;;;;;;;0.50;0.50;;;;;;;7.76;75.25;97947.34;29395;234;63009;-64
2023/01/03 00:42:27;;;;;;;0.50;0.50;;;;;;;7.76;75.21;97941.94;29396;236;63005;-65
2023/01/03 00:43:51;;;;;;;0.60;0.60;;;;;;;7.76;75.42;97944.63;29395;240;63005;-56
2023/01/03 00:44:22;;;;;;;0.50;0.50;;;;;;;7.77;75.32;97943.56;29394;197;64013;-56
2023/01/03 00:44:55;;;;;;;0.50;0.50;;;;;;;7.79;75.10;97948.72;29395;206;63005;-58
2023/01/03 00:45:27;;;;;;;0.50;0.50;;;;;;;7.79;75.00;97946.03;29395;219;63009;-56
2023/01/03 00:46:01;;;;;;;0.60;0.60;;;;;;;7.77;75.26;97948.97;29395;206;63010;-56
2023/01/03 00:46:33;;;;;;;0.50;0.50;;;;;;;7.75;75.07;97951.09;29394;248;64013;-56
2023/01/03 00:47:06;;;;;;;0.50;0.50;;;;;;;7.76;75.48;97962.72;29395;208;63004;-57
2023/01/03 00:47:39;;;;;;;0.60;0.60;;;;;;;7.73;75.41;97954.06;29395;202;63009;-67
2023/01/03 00:48:13;;;;;;;0.50;0.50;;;;;;;7.72;75.53;97957.81;29395;210;63004;-56
2023/01/03 00:48:45;;;;;;;0.50;0.50;;;;;;;7.72;75.40;97957.81;29395;220;63009;-57
2023/01/03 00:49:21;;;;;;;0.60;0.60;;;;;;;7.75;75.35;97961.91;29395;207;63005;-66
2023/01/03 00:49:52;;;;;;;0.60;0.60;;;;;;;7.76;75.41;97962.72;29394;212;64014;-56
2023/01/03 00:50:23;;;;;;;0.50;0.50;;;;;;;7.73;75.37;97958.63;29395;211;63005;-56
2023/01/03 00:51:03;;;;;;;0.50;0.50;;;;;;;7.71;75.35;97960.78;29394;216;64013;-56
2023/01/03 00:51:35;;;;;;;0.60;0.60;;;;;;;7.69;75.36;97957.50;29394;277;64009;-56
2023/01/03 00:52:08;;;;;;;0.50;0.50;;;;;;;7.69;75.66;97961.00;29395;233;63009;-63
2023/01/03 00:52:41;;;;;;;0.50;0.50;;;;;;;7.70;75.38;97959.13;29395;224;63005;-66
2023/01/03 00:53:12;;;;;;;0.50;0.50;;;;;;;7.70;75.22;97954.56;29395;218;63009;-56
2023/01/03 00:53:46;;;;;;;0.60;0.60;;;;;;;7.73;75.09;97947.84;29395;231;63004;-56
2023/01/03 00:54:18;;;;;;;0.50;0.50;;;;;;;7.75;74.96;97945.69;29395;238;63009;-57
2023/01/03 00:54:50;;;;;;;0.50;0.50;;;;;;;7.77;75.05;97948.97;29395;214;63004;-56
2023/01/03 00:55:21;;;;;;;0.60;0.60;;;;;;;7.77;75.40;97951.69;29395;268;63019;-56
2023/01/03 00:55:52;;;;;;;0.50;0.50;;;;;;;7.76;75.23;97952.75;29395;267;63004;-57
2023/01/03 00:56:26;;;;;;;0.60;0.60;;;;;;;7.74;75.40;97949.47;29394;254;64014;-56
2023/01/03 00:56:58;;;;;;;0.50;0.50;;;;;;;7.74;75.23;97947.59;29395;273;63005;-56
2023/01/03 00:57:29;;;;;;;0.60;0.60;;;;;;;7.73;75.41;97947.84;29394;249;64014;-59
2023/01/03 00:58:04;;;;;;;0.50;0.50;;;;;;;7.73;75.56;97953.25;29395;296;63005;-56
2023/01/03 00:58:36;;;;;;;0.50;0.50;;;;;;;7.72;75.27;97944.31;29395;202;63009;-66
2023/01/03 00:59:08;;;;;;;0.50;0.50;;;;;;;7.72;75.66;97946.19;29395;196;63005;-66
2023/01/03 00:59:40;;;;;;;0.50;0.50;;;;;;;7.71;75.60;97945.38;29395;233;63009;-57
2023/01/03 01:00:12;;;;;;;0.50;0.50;;;;;;;7.72;75.58;97946.19;29395;245;63005;-66
2023/01/03 01:00:44;;;;;;;0.60;0.60;;;;;;;7.74;75.23;97944.06;29394;222;64013;-56
2023/01/03 01:01:23;;;;;;;0.60;0.60;;;;;;;7.73;75.26;97942.44;29395;197;63004;-56
2023/01/03 01:01:56;;;;;;;0.50;0.50;;;;;;;7.74;75.36;97949.47;29395;212;63009;-65
2023/01/03 01:02:27;;;;;;;0.50;0.50;;;;;;;7.73;75.49;97947.84;29395;247;63004;-56
2023/01/03 01:02:58;;;;;;;0.50;0.50;;;;;;;7.73;75.49;97950.53;29394;249;64013;-57
2023/01/03 01:03:29;;;;;;;0.60;0.60;;;;;;;7.72;75.22;97940.78;29395;272;63004;-65
2023/01/03 01:04:35;;;;;;;0.60;0.60;;;;;;;7.71;75.11;97949.97;29395;200;63009;-57
2023/01/03 01:05:07;;;;;;;0.60;0.60;;;;;;;7.73;75.54;97947.84;29395;228;63005;-67
2023/01/03 01:05:40;;;;;;;0.50;0.50;;;;;;;7.73;75.46;97947.84;29395;221;63009;-57
2023/01/03 01:06:22;;;;;;;0.50;0.50;;;;;;;7.73;75.29;97950.53;29395;247;63005;-66
2023/01/03 01:06:59;;;;;;;0.50;0.50;;;;;;;7.73;75.49;97947.84;29395;247;63009;-58
2023/01/03 01:07:31;;;;;;;0.50;0.50;;;;;;;7.72;75.52;97947.00;29395;261;63005;-56
2023/01/03 01:08:03;;;;;;;0.50;0.50;;;;;;;7.72;75.28;97947.00;29394;225;64013;-57
2023/01/03 01:08:38;;;;;;;0.50;0.50;;;;;;;7.73;75.35;97947.84;29395;227;63004;-65
2023/01/03 01:09:12;;;;;;;0.60;0.60;;;;;;;7.72;75.50;97938.91;29395;212;63019;-56
2023/01/03 01:09:44;;;;;;;0.60;0.60;;;;;;;7.71;75.55;97934.56;29395;253;63004;-66
2023/01/03 01:11:22;;;;;;;0.60;0.60;;;;;;;7.67;75.96;97933.44;88182;204;64004;-91
2023/01/03 01:11:54;;;;;;;0.50;0.50;;;;;;;7.67;76.13;97938.00;29394;202;64009;-93
2023/01/03 01:12:26;;;;;;;0.50;0.50;;;;;;;7.65;76.18;97935.56;29395;268;63007;-92
2023/01/03 01:12:57;;;;;;;0.60;0.60;;;;;;;7.65;76.37;97940.16;29395;206;63009;-92
2023/01/03 01:13:30;;;;;;;0.50;0.50;;;;;;;7.63;76.38;97937.69;29394;245;64009;-93
2023/01/03 01:14:02;;;;;;;0.50;0.50;;;;;;;7.58;76.96;97940.34;29395;259;63009;-92
2023/01/03 01:14:35;;;;;;;0.60;0.60;;;;;;;7.55;77.32;97940.03;29395;274;63005;-94
2023/01/03 01:15:09;;;;;;;0.60;0.60;;;;;;;7.52;77.52;97940.50;29395;231;63009;-91
2023/01/03 01:15:41;;;;;;;0.50;0.50;;;;;;;7.50;77.36;97932.66;29395;204;63004;-92
2023/01/03 01:16:16;;;;;;;0.60;0.60;;;;;;;7.51;77.47;97938.88;29395;216;63017;-90
2023/01/03 01:16:57;;;;;;;0.50;0.50;;;;;;;7.51;77.31;97928.91;29395;233;63004;-93
2023/01/03 01:17:30;;;;;;;0.60;0.60;;;;;;;7.52;77.17;97940.50;29394;253;64013;-94
2023/01/03 01:18:02;;;;;;;0.60;0.60;;;;;;;7.51;77.30;97942.41;29395;245;63004;-91
2023/01/03 01:18:35;;;;;;;0.60;0.60;;;;;;;7.50;77.20;97935.34;29395;208;63009;-90
2023/01/03 01:19:15;;;;;;;0.60;0.60;;;;;;;7.50;77.12;97938.06;29395;310;63005;-90
2023/01/03 01:19:49;;;;;;;0.60;0.60;;;;;;;7.47;77.27;97938.56;29417;290;63009;-92
2023/01/03 01:20:20;;;;;;;0.50;0.50;;;;;;;7.43;77.14;97936.59;29394;232;64009;-92
2023/01/03 01:20:52;;;;;;;0.55;0.55;;;;;;;7.41;77.12;97939.53;29394;243;64013;-93
2023/01/03 01:21:34;;;;;;;0.55;0.55;;;;;;;7.39;77.26;97937.09;29395;203;63005;-91
2023/01/03 01:22:12;;;;;;;0.57;0.57;;;;;;;7.37;77.48;97938.38;29395;227;63009;-92
2023/01/03 01:22:44;;;;;;;0.60;0.60;;;;;;;7.35;78.17;97935.13;29395;202;63004;-92
2023/01/03 01:23:15;;;;;;;0.50;0.50;;;;;;;7.34;78.06;97934.31;29395;204;63009;-91
2023/01/03 01:23:48;;;;;;;0.50;0.50;;;;;;;7.34;78.49;97945.09;29395;254;63004;-91
2023/01/03 01:24:19;;;;;;;0.60;0.60;;;;;;;7.34;78.63;97942.41;29395;274;63009;-92
2023/01/03 01:24:51;;;;;;;0.60;0.60;;;;;;;7.35;78.67;97946.72;29394;217;64009;-91
2023/01/03 01:26:29;;;;;;;0.59;0.59;;;;;;;7.36;78.57;97947.56;88181;202;64004;-93
2023/01/03 01:27:42;;;;;;;0.60;0.60;;;;;;;7.36;78.51;97948.38;29394;218;64009;-91
2023/01/03 01:29:04;;;;;;;0.60;0.60;;;;;;;7.35;78.11;97954.84;29395;236;63004;-93
2023/01/03 01:30:26;;;;;;;0.60;0.60;;;;;;;7.35;78.30;97954.84;29394;245;64013;-90
2023/01/03 01:31:24;;;;;;;0.60;0.60;;;;;;;7.38;78.47;97957.03;29395;263;63004;-92
2023/01/03 01:32:37;;;;;;;0.60;0.60;;;;;;;7.42;78.16;97951.97;29395;214;63009;-92
2023/01/03 01:33:08;;;;;;;0.50;0.50;;;;;;;7.45;77.82;97956.88;29417;260;63005;-91
2023/01/03 01:33:40;;;;;;;0.50;0.50;;;;;;;7.46;77.74;97952.31;29395;252;63009;-90
2023/01/03 01:34:33;;;;;;;0.57;0.57;;;;;;;7.44;77.65;97965.22;29395;203;63005;-94
2023/01/03 01:35:10;;;;;;;0.52;0.52;;;;;;;7.40;77.95;97957.63;29394;222;64013;-92
2023/01/03 01:35:42;;;;;;;0.60;0.60;;;;;;;7.39;77.87;97957.87;29395;200;63005;-91
2023/01/03 01:36:56;;;;;;;0.60;0.60;;;;;;;7.39;77.88;97961.38;29395;214;63009;-93
2023/01/03 01:37:37;;;;;;;0.60;0.60;;;;;;;7.30;78.10;97954.75;29394;229;64009;-89
2023/01/03 01:38:09;;;;;;;0.85;0.85;;;;;;;7.35;78.31;97962.12;29395;231;63009;-92
2023/01/03 01:39:00;;;;;;;0.57;0.57;;;;;;;7.34;78.03;97958.59;29395;245;63004;-91
2023/01/03 01:39:54;;;;;;;0.50;0.50;;;;;;;7.34;78.05;97960.47;29417;219;63009;-93
2023/01/03 01:40:31;;;;;;;0.60;0.60;;;;;;;7.33;77.89;97959.66;29395;224;63005;-92
2023/01/03 01:41:04;;;;;;;0.50;0.50;;;;;;;7.32;77.93;97963.44;29395;203;63009;-93
2023/01/03 01:44:51;;;;;;;0.60;0.60;;;;;;;7.25;78.91;97954.69;29394;302;64009;-93
2023/01/03 01:46:20;;;;;;;0.60;0.60;;;;;;;7.25;78.86;97952.00;29395;247;63004;-91
2023/01/03 01:47:35;;;;;;;0.40;0.40;;;;;;;7.26;78.53;97953.63;29395;202;63009;-92
2023/01/03 01:48:31;;;;;;;0.60;0.60;;;;;;;7.26;78.64;97952.81;29394;226;64009;-90
2023/01/03 01:49:07;;;;;;;0.60;0.60;;;;;;;7.25;78.49;97960.09;29395;208;63009;-91
2023/01/03 01:49:39;;;;;;;0.60;0.60;;;;;;;7.24;78.47;97955.75;29395;272;63005;-90
2023/01/03 01:50:37;;;;;;;0.60;0.60;;;;;;;7.23;78.53;97967.63;29395;234;63009;-90
2023/01/03 01:51:11;;;;;;;0.60;0.60;;;;;;;7.19;78.70;97961.06;29395;203;63004;-89
2023/01/03 01:51:43;;;;;;;0.60;0.60;;;;;;;7.19;78.99;97962.94;29395;222;63009;-92
2023/01/03 01:52:29;;;;;;;0.60;0.60;;;;;;;7.15;79.09;97969.91;29395;275;63004;-91
2023/01/03 01:53:42;;;;;;;0.60;0.60;;;;;;;7.08;79.35;97972.75;29417;327;63008;-92
2023/01/03 01:54:40;;;;;;;0.60;0.60;;;;;;;7.04;79.91;97971.59;29438;238;64008;-90
2023/01/03 01:55:20;;;;;;;0.55;0.55;;;;;;;7.01;80.09;97967.50;29373;233;63009;-93
2023/01/03 01:56:24;;;;;;;0.52;0.52;;;;;;;7.01;79.71;97972.06;29417;334;63005;-92
2023/01/03 01:56:58;;;;;;;0.60;0.60;;;;;;;7.02;79.32;97969.12;29395;308;63005;-92
2023/01/03 01:57:32;;;;;;;0.50;0.50;;;;;;;7.03;79.33;97969.97;29395;251;63009;-93
2023/01/03 01:58:06;;;;;;;0.50;0.50;;;;;;;7.05;79.29;97973.22;29395;234;63004;-91
2023/01/03 01:58:51;;;;;;;0.60;0.60;;;;;;;7.06;79.24;97972.16;29395;212;63009;-89
2023/01/03 01:59:28;;;;;;;0.60;0.60;;;;;;;7.08;79.68;97983.53;29394;232;64009;-89
2023/01/03 01:59:59;;;;;;;0.60;0.60;;;;;;;7.05;80.04;97973.22;29395;364;63009;-92
2023/01/03 02:00:35;;;;;;;0.52;0.52;;;;;;;6.99;80.03;97966.91;29395;222;63004;-91
2023/01/03 02:01:11;;;;;;;0.50;0.50;;;;;;;6.99;79.71;97968.81;29395;211;63009;-92
2023/01/03 02:01:47;;;;;;;0.57;0.57;;;;;;;7.01;79.72;97966.69;29395;217;63005;-90
2023/01/03 02:02:21;;;;;;;0.60;0.60;;;;;;;7.02;79.85;97973.72;29395;249;63009;-91
2023/01/03 02:02:55;;;;;;;0.55;0.55;;;;;;;7.04;79.90;97968.91;29395;237;63005;-91
2023/01/03 02:03:28;;;;;;;0.50;0.50;;;;;;;7.01;80.12;97964.81;29395;216;63009;-90
2023/01/03 02:04:06;;;;;;;0.60;0.60;;;;;;;6.98;80.39;97967.16;29395;212;63005;-92
2023/01/03 02:04:51;;;;;;;0.60;0.60;;;;;;;6.96;80.23;97970.09;29416;198;64013;-91
2023/01/03 02:05:33;;;;;;;0.60;0.60;;;;;;;6.95;80.18;97973.87;29395;250;63004;-91
2023/01/03 02:06:15;;;;;;;0.60;0.60;;;;;;;6.97;80.05;97970.94;29395;226;63009;-90
2023/01/03 02:07:27;;;;;;;0.60;0.60;;;;;;;6.97;79.98;97960.94;29395;220;63004;-91
2023/01/03 02:09:45;;;;;;;;;;;;;;;;;;;;;
2023/01/03 02:11:37;;;;;;;;;;;;;;;;;;;;;
2023/01/03 02:13:39;;;;;;;;;;;;;;;;;;;;;
2023/01/03 02:15:46;;;;;;;;;;;;;;;;;;;;;
2023/01/03 02:17:29;;;;;;;;;;;;;;;;;;;;;
2023/01/03 02:18:59;;;;;;;0.60;0.60;;;;;;;6.98;80.24;97962.59;29417;200;63005;-91
2023/01/03 02:21:35;;;;;;;;;;;;;;;;;;;;;
2023/01/03 02:23:15;;;;;;;0.60;0.60;;;;;;;7.01;79.94;97974.78;29394;275;64009;-92
2023/01/03 02:24:44;;;;;;;0.60;0.60;;;;;;;7.02;79.72;97979.94;29394;217;64014;-92
2023/01/03 02:58:18;;;;;;;0.60;0.60;;;;;;;6.61;80.92;97972.97;29394;258;64013;-93
2023/01/03 03:02:38;;;;;;;;;;;;;;;;;;;;;
2023/01/03 03:04:23;;;;;;;;;;;;;;;;;;;;;
2023/01/03 03:06:11;;;;;;;0.60;0.60;;;;;;;6.41;82.50;97993.34;29394;218;64009;-92
2023/01/03 03:08:01;;;;;;;;;;;;;;;;;;;;;
2023/01/03 03:14:06;;;;;;;;;;;;;;;;;;;;;
2023/01/03 03:15:56;;;;;;;0.60;0.60;;;;;;;6.37;82.94;97987.59;29395;269;63004;-91
2023/01/03 03:17:15;;;;;;;;;;;;;;;;;;;;;
2023/01/03 03:18:30;;;;;;;0.60;0.60;;;;;;;6.34;83.09;97993.47;29394;234;64009;-91
2023/01/03 03:26:56;;;;;;;0.60;0.60;;;;;;;6.32;83.31;97974.03;29416;260;64009;-91
2023/01/03 03:31:07;;;;;;;;;;;;;;;;;;;;;
2023/01/03 03:33:10;;;;;;;;;;;;;;;;;;;;;
2023/01/03 03:34:49;;;;;;;;;;;;;;;;;;;;;
2023/01/03 03:45:30;;;;;;;0.60;0.60;;;;;;;6.47;81.76;97966.25;29394;232;64013;-93
2023/01/03 03:47:52;;;;;;;0.60;0.60;;;;;;;6.51;81.75;97967.41;29394;219;64014;-93
2023/01/03 03:50:13;;;;;;;;;;;;;;;;;;;;;
2023/01/03 03:52:07;;;;;;;;;;;;;;;;;;;;;
2023/01/03 04:01:18;;;;;;;;;;;;;;;;;;;;;
2023/01/03 04:04:57;;;;;;;0.60;0.60;;;;;;;6.37;82.32;97987.59;29396;204;63005;-92
2023/01/03 04:07:02;;;;;;;;;;;;;;;;;;;;;
2023/01/03 04:08:25;;;;;;;0.60;0.60;;;;;;;6.30;82.27;97992.31;29395;221;64004;-91
2023/01/03 04:12:34;;;;;;;0.60;0.60;;;;;;;6.09;82.33;97991.09;29418;224;63005;-91
2023/01/03 04:14:14;;;;;;;0.60;0.60;;;;;;;6.05;82.90;98001.50;29395;197;64013;-93
2023/01/03 04:16:12;;;;;;;;;;;;;;;;;;;;;
2023/01/03 04:17:14;;;;;;;;;;;;;;;;;;;;;
2023/01/03 04:18:06;;;;;;;;;;;;;;;5.91;83.08;97994.72;29997;982;6005;-90
2023/01/03 04:19:12;;;;;;;0.60;0.60;;;;;;;5.89;83.32;97999.53;29423;271;63009;-90
2023/01/03 04:20:14;;;;;;;0.60;0.60;;;;;;;5.87;83.79;97993.56;29395;253;64009;-91
2023/01/03 04:23:46;;;;;;;;;;;;;;;;;;;;;
2023/01/03 04:25:23;;;;;;;;;;;;;;;;;;;;;
2023/01/03 04:29:48;;;;;;;;;;;;;;;;;;;;;
2023/01/03 04:37:01;;;;;;;;;;;;;;;;;;;;;
2023/01/03 04:38:38;;;;;;;0.52;0.52;;;;;;;5.79;84.57;97998.47;29395;240;64009;-93
2023/01/03 04:40:08;;;;;;;0.55;0.55;;;;;;;5.79;84.64;98004.69;29395;229;64014;-93
2023/01/03 04:40:40;;;;;;;0.60;0.60;;;;;;;5.77;84.69;98004.09;29373;230;64009;-92
2023/01/03 04:41:14;;;;;;;0.60;0.60;;;;;;;5.78;84.91;98000.34;29396;195;63009;-92
2023/01/03 04:44:00;;;;;;;0.60;0.60;;;;;;;5.79;85.04;98001.97;29396;224;63005;-92
2023/01/03 04:44:03;;;;;;;0.50;0.50;;;;;;;5.77;85.26;98001.41;29395;214;64013;-93
2023/01/03 04:45:54;;;;;;;;;;;;;;;;;;;;;
2023/01/03 04:50:14;;;;;;;;;;;;;;;;;;;;;
2023/01/03 04:52:00;;;;;;;0.60;0.60;;;;;;;5.66;85.46;98010.28;29376;222;63009;-92
2023/01/03 04:54:05;;;;;;;0.60;0.60;;;;;;;5.63;85.92;98008.06;29418;278;64014;-91
2023/01/03 04:56:02;;;;;;;0.60;0.60;;;;;;;5.56;86.56;98013.56;29396;216;64009;-91
2023/01/03 04:58:11;;;;;;;;;;;;;;;;;;;;;
2023/01/03 05:00:14;;;;;;;;;;;;;;;;;;;;;
2023/01/03 05:02:00;;;;;;;;;;;;;;;;;;;;;
2023/01/03 05:03:51;;;;;;;0.60;0.60;;;;;;;5.66;85.83;98013.81;29396;203;63019;-93
2023/01/03 05:06:18;;;;;;;;;;;;;;;;;;;;;
2023/01/03 06:11:57;;;;;;;0.60;0.60;;;;;;;5.65;86.85;98043.66;29395;198;63005;-92
2023/01/03 06:14:00;;;;;;;0.60;0.60;;;;;;;5.68;86.52;98041.31;29372;310;64013;-91
2023/01/03 06:15:06;;;;;;;0.60;0.60;;;;;;;5.66;86.26;98034.53;29394;226;64008;-93
2023/01/03 06:17:53;;;;;;;0.60;0.60;;;;;;;5.81;85.92;98034.06;29395;251;63013;-56
2023/01/03 06:18:25;;;;;;;0.60;0.60;;;;;;;5.81;85.79;98032.19;29373;229;63005;-65
2023/01/03 06:18:56;;;;;;;0.60;0.60;;;;;;;5.83;85.65;98040.88;29393;205;64013;-55
2023/01/03 06:19:29;;;;;;;0.60;0.60;;;;;;;5.83;85.54;98035.47;29395;243;63004;-67
2023/01/03 06:20:01;;;;;;;0.60;0.60;;;;;;;5.83;85.89;98040.88;29395;210;63019;-58
2023/01/03 06:20:36;;;;;;;0.60;0.60;;;;;;;5.85;85.39;98043.31;29395;232;63004;-56
2023/01/03 06:21:10;;;;;;;0.60;0.60;;;;;;;5.86;85.22;98043.09;29395;364;63008;-66
2023/01/03 06:21:41;;;;;;;0.60;0.60;;;;;;;5.88;85.13;98037.47;29395;250;63004;-66
2023/01/03 06:22:12;;;;;;;0.60;0.60;;;;;;;5.87;84.86;98047.44;29395;244;63009;-67
2023/01/03 06:22:47;;;;;;;0.60;0.60;;;;;;;5.86;85.32;98043.09;29393;229;64009;-67
2023/01/03 06:23:18;;;;;;;0.60;0.60;;;;;;;5.86;85.01;98040.41;29395;216;63009;-65
2023/01/03 06:23:49;;;;;;;0.60;0.60;;;;;;;5.85;85.49;98043.31;29395;210;63005;-68
2023/01/03 06:24:22;;;;;;;0.60;0.60;;;;;;;5.86;85.30;98040.41;29395;302;63009;-67
2023/01/03 06:24:53;;;;;;;0.50;0.50;;;;;;;5.87;85.38;98046.59;29395;220;63005;-65
2023/01/03 06:25:25;;;;;;;0.60;0.60;;;;;;;5.88;85.14;98046.38;29395;220;63009;-66
2023/01/03 06:26:01;;;;;;;0.60;0.60;;;;;;;5.89;85.34;98049.91;29395;241;63005;-57
2023/01/03 06:26:32;;;;;;;0.60;0.60;;;;;;;5.89;84.88;98050.72;29395;210;63009;-56
2023/01/03 06:27:04;;;;;;;0.60;0.60;;;;;;;5.90;84.92;98046.97;29395;222;63004;-57
2023/01/03 06:27:35;;;;;;;0.60;0.60;;;;;;;5.90;84.92;98049.66;29395;215;63009;-57
2023/01/03 06:28:06;;;;;;;2.00;1.98;;;;;;;5.91;84.80;98045.91;29394;207;64009;-57
2023/01/03 06:28:37;;;;;;;0.60;0.60;;;;;;;5.92;84.89;98049.41;29395;259;63009;-57
2023/01/03 06:29:09;;;;;;;0.55;0.55;;;;;;;5.92;84.72;98044.03;29395;202;63004;-56
2023/01/03 06:29:40;;;;;;;0.50;0.50;;;;;;;5.92;84.87;98042.16;29394;278;64014;-65
2023/01/03 06:30:14;;;;;;;0.60;0.60;;;;;;;5.92;84.82;98044.84;29395;237;63010;-67
2023/01/03 06:30:45;;;;;;;0.60;0.60;;;;;;;5.92;84.68;98044.03;29395;217;63009;-56
2023/01/03 06:31:18;;;;;;;0.60;0.60;;;;;;;5.92;84.61;98049.41;29395;198;63005;-56
2023/01/03 06:31:56;;;;;;;0.60;0.60;;;;;;;5.92;84.43;98055.63;29395;222;63009;-56
2023/01/03 06:32:29;;;;;;;0.60;0.60;;;;;;;5.92;84.48;98052.94;29395;225;63005;-56
2023/01/03 06:33:04;;;;;;;0.60;0.60;;;;;;;5.91;84.64;98048.59;29395;196;63009;-56
2023/01/03 06:33:36;;;;;;;0.50;0.50;;;;;;;5.91;84.61;98048.59;29395;255;63005;-56
2023/01/03 06:34:08;;;;;;;0.60;0.60;;;;;;;5.90;84.45;98052.34;29395;218;63020;-58
2023/01/03 06:34:39;;;;;;;0.60;0.60;;;;;;;5.90;84.76;98046.97;29394;248;64009;-57
2023/01/03 06:35:11;;;;;;;0.60;0.60;;;;;;;5.89;84.73;98055.31;29395;210;63009;-56
2023/01/03 06:35:46;;;;;;;0.60;0.60;;;;;;;5.88;84.92;98051.75;29395;245;63004;-57
2023/01/03 06:36:21;;;;;;;0.50;0.50;;;;;;;5.86;85.25;98051.16;29395;280;63004;-57
2023/01/03 06:36:53;;;;;;;0.60;0.60;;;;;;;5.85;85.64;98049.53;29395;232;63004;-57
2023/01/03 06:37:24;;;;;;;0.55;0.55;;;;;;;5.86;85.49;98053.88;29395;365;63009;-57
2023/01/03 06:37:56;;;;;;;0.60;0.60;;;;;;;5.87;85.53;98052.00;29395;199;63005;-56
2023/01/03 06:38:28;;;;;;;0.60;0.60;;;;;;;5.87;85.66;98052.81;29393;335;64031;-56
2023/01/03 06:39:00;;;;;;;0.60;0.60;;;;;;;5.87;85.98;98055.50;29395;219;63005;-57
2023/01/03 06:39:32;;;;;;;0.60;0.60;;;;;;;5.87;85.94;98052.00;29395;247;63009;-57
2023/01/03 06:40:05;;;;;;;0.50;0.50;;;;;;;5.86;86.39;98050.34;29395;239;63005;-57
2023/01/03 06:40:36;;;;;;;0.60;0.60;;;;;;;5.86;86.12;98055.75;29395;380;63009;-57
2023/01/03 06:41:07;;;;;;;0.60;0.60;;;;;;;5.87;86.04;98058.19;29395;202;63005;-68
2023/01/03 06:41:39;;;;;;;0.60;0.60;;;;;;;5.86;85.96;98051.16;29395;322;63009;-66
2023/01/03 06:43:00;;;;;;;19.48;8.18;;;;;;;5.88;86.18;98059.84;29388;218;65013;-58
2023/01/03 06:43:33;;;;;;;0.57;0.57;;;;;;;5.89;86.08;98055.31;29395;224;63004;-57
2023/01/03 06:44:06;;;;;;;0.55;0.55;;;;;;;5.89;85.94;98056.09;29395;221;63014;-57
2023/01/03 06:44:39;;;;;;;0.60;0.60;;;;;;;5.88;85.91;98057.16;29395;246;63005;-57